createdAt,value
2022-08-21T00:01:31.328Z,15.8
2022-08-21T00:03:27.915Z,15.9
2022-08-21T00:05:25.123Z,15.9
2022-08-21T00:07:26.394Z,16
2022-08-21T00:09:29.615Z,15.9
2022-08-21T00:11:25.504Z,15.8
2022-08-21T00:13:27.642Z,15.7
2022-08-21T00:15:25.309Z,15.8
2022-08-21T00:17:30.540Z,15.7
2022-08-21T00:19:26.837Z,15.8
2022-08-21T00:21:29.610Z,15.8
2022-08-21T00:23:27.896Z,15.8
2022-08-21T00:25:28.496Z,15.7
2022-08-21T00:27:26.340Z,15.8
2022-08-21T00:29:29.773Z,15.7
2022-08-21T00:31:26.425Z,15.7
2022-08-21T00:33:26.419Z,15.7
2022-08-21T00:35:28.232Z,15.7
2022-08-21T00:37:27.751Z,15.6
2022-08-21T00:41:36.964Z,15.6
2022-08-21T00:45:25.446Z,15.8
2022-08-21T00:47:31.479Z,15.6
2022-08-21T00:49:27.849Z,15.6
2022-08-21T00:51:26.462Z,15.6
2022-08-21T00:53:25.164Z,15.6
2022-08-21T00:55:27.918Z,15.5
2022-08-21T00:57:31.137Z,15.6
2022-08-21T01:01:31.309Z,15.6
2022-08-21T01:03:25.056Z,15.6
2022-08-21T01:05:25.102Z,15.6
2022-08-21T01:07:27.534Z,15.6
2022-08-21T01:11:31.248Z,15.6
2022-08-21T01:13:28.263Z,15.5
2022-08-21T01:15:31.218Z,15.5
2022-08-21T01:17:31.582Z,15.5
2022-08-21T01:23:29.617Z,15.5
2022-08-21T01:25:31.445Z,15.5
2022-08-21T01:27:25.493Z,15.5
2022-08-21T01:29:33.158Z,15.4
2022-08-21T01:31:31.253Z,15.4
2022-08-21T01:33:28.640Z,15.3
2022-08-21T01:35:25.139Z,15.4
2022-08-21T01:37:31.128Z,15.5
2022-08-21T01:39:28.161Z,15.4
2022-08-21T01:41:27.944Z,15.4
2022-08-21T01:43:39.230Z,15.3
2022-08-21T01:45:28.148Z,15.4
2022-08-21T01:47:25.082Z,15.3
2022-08-21T01:49:25.591Z,15.3
2022-08-21T01:51:27.997Z,15.3
2022-08-21T01:55:25.599Z,15.3
2022-08-21T01:57:26.057Z,15.3
2022-08-21T01:59:26.971Z,15.3
2022-08-21T02:01:25.603Z,15.3
2022-08-21T02:03:35.135Z,15.1
2022-08-21T02:05:27.928Z,15.1
2022-08-21T02:07:27.880Z,15.3
2022-08-21T02:09:25.098Z,15.2
2022-08-21T02:13:25.966Z,15.2
2022-08-21T02:15:28.511Z,15.3
2022-08-21T02:17:30.936Z,15.2
2022-08-21T02:19:26.382Z,15.2
2022-08-21T02:21:25.128Z,15.2
2022-08-21T02:23:27.115Z,15.1
2022-08-21T02:25:31.278Z,15.2
2022-08-21T02:27:26.441Z,15
2022-08-21T02:29:28.384Z,15
2022-08-21T02:31:28.857Z,15
2022-08-21T02:33:28.285Z,14.9
2022-08-21T02:35:25.529Z,15
2022-08-21T02:37:25.520Z,15
2022-08-21T02:39:27.001Z,14.9
2022-08-21T02:41:28.376Z,15.1
2022-08-21T02:43:25.944Z,14.9
2022-08-21T02:45:28.366Z,14.9
2022-08-21T02:47:28.295Z,14.8
2022-08-21T02:51:25.105Z,14.7
2022-08-21T02:53:25.125Z,14.9
2022-08-21T02:55:32.813Z,15
2022-08-21T02:57:26.428Z,14.9
2022-08-21T02:59:28.698Z,15
2022-08-21T03:01:28.281Z,14.9
2022-08-21T03:03:28.143Z,14.9
2022-08-21T03:07:29.955Z,14.8
2022-08-21T03:09:27.887Z,14.8
2022-08-21T03:11:31.205Z,14.8
2022-08-21T03:13:28.368Z,14.8
2022-08-21T03:15:25.074Z,14.8
2022-08-21T03:17:29.264Z,14.7
2022-08-21T03:19:28.146Z,14.6
2022-08-21T03:21:31.412Z,14.8
2022-08-21T03:23:31.843Z,14.7
2022-08-21T03:25:40.221Z,14.6
2022-08-21T03:27:26.411Z,14.6
2022-08-21T03:29:25.151Z,14.5
2022-08-21T03:31:27.746Z,14.7
2022-08-21T03:33:25.102Z,14.6
2022-08-21T03:35:28.233Z,14.6
2022-08-21T03:37:31.279Z,14.7
2022-08-21T03:39:28.371Z,14.5
2022-08-21T03:41:25.206Z,14.6
2022-08-21T03:43:28.002Z,14.5
2022-08-21T03:45:26.452Z,14.5
2022-08-21T03:47:25.902Z,14.6
2022-08-21T03:49:25.527Z,14.4
2022-08-21T03:53:27.962Z,14.4
2022-08-21T03:55:31.316Z,14.3
2022-08-21T03:57:27.889Z,14.3
2022-08-21T03:59:28.479Z,14.3
2022-08-21T04:01:34.534Z,14.2
2022-08-21T04:03:27.989Z,14.3
2022-08-21T04:05:31.578Z,14.2
2022-08-21T04:07:25.591Z,14.3
2022-08-21T04:09:25.153Z,14.2
2022-08-21T04:11:30.133Z,14.3
2022-08-21T04:13:28.849Z,14.3
2022-08-21T04:15:29.389Z,14.3
2022-08-21T04:17:27.842Z,14.3
2022-08-21T04:19:29.045Z,14.3
2022-08-21T04:21:26.197Z,14.3
2022-08-21T04:23:27.933Z,14.3
2022-08-21T04:25:29.064Z,14.3
2022-08-21T04:27:27.951Z,14.3
2022-08-21T04:29:27.132Z,14.4
2022-08-21T04:31:29.059Z,14.4
2022-08-21T04:33:28.093Z,14.3
2022-08-21T04:35:29.603Z,14.2
2022-08-21T04:39:29.620Z,14.4
2022-08-21T04:41:28.539Z,14.3
2022-08-21T04:43:29.187Z,14.5
2022-08-21T04:47:41.595Z,14.4
2022-08-21T04:51:27.956Z,14.3
2022-08-21T04:53:31.042Z,14.3
2022-08-21T04:55:28.900Z,14.3
2022-08-21T04:57:34.263Z,14.3
2022-08-21T04:59:28.523Z,14.4
2022-08-21T05:03:27.558Z,14.5
2022-08-21T05:05:27.064Z,14.5
2022-08-21T05:07:41.774Z,14.5
2022-08-21T05:09:30.810Z,14.6
2022-08-21T05:11:27.412Z,14.6
2022-08-21T05:13:28.521Z,14.6
2022-08-21T05:15:31.057Z,14.6
2022-08-21T05:17:27.542Z,14.7
2022-08-21T05:19:28.305Z,14.7
2022-08-21T05:21:28.197Z,14.9
2022-08-21T05:23:28.525Z,15
2022-08-21T05:27:28.518Z,15.1
2022-08-21T05:29:34.359Z,15.2
2022-08-21T05:33:27.923Z,15.1
2022-08-21T05:35:28.149Z,15.1
2022-08-21T05:37:29.118Z,15.3
2022-08-21T05:39:28.311Z,15.5
2022-08-21T05:41:27.957Z,15.5
2022-08-21T05:43:29.472Z,15.4
2022-08-21T05:45:42.433Z,15.4
2022-08-21T05:47:26.628Z,15.9
2022-08-21T05:49:29.141Z,15.7
2022-08-21T05:51:31.295Z,15.6
2022-08-21T05:53:28.195Z,16.1
2022-08-21T05:55:29.608Z,15.9
2022-08-21T05:57:28.516Z,15.9
2022-08-21T05:59:27.270Z,15.9
2022-08-21T06:01:29.466Z,16.2
2022-08-21T06:03:27.904Z,16
2022-08-21T06:05:36.504Z,17.3
2022-08-21T06:07:29.071Z,18.5
2022-08-21T06:09:28.427Z,19.3
2022-08-21T06:11:30.892Z,20
2022-08-21T06:15:26.378Z,19.9
2022-08-21T06:17:28.013Z,20.2
2022-08-21T06:19:28.956Z,20.1
2022-08-21T06:21:28.268Z,20.1
2022-08-21T06:23:28.858Z,20.1
2022-08-21T06:27:27.245Z,20
2022-08-21T06:29:27.991Z,19.9
2022-08-21T06:31:27.768Z,20.1
2022-08-21T06:33:32.436Z,20.3
2022-08-21T06:35:28.226Z,20.4
2022-08-21T06:37:28.997Z,20.5
2022-08-21T06:39:30.551Z,20.3
2022-08-21T06:41:27.694Z,20.3
2022-08-21T06:43:37.898Z,20.3
2022-08-21T06:45:29.966Z,20.3
2022-08-21T06:47:27.498Z,20.5
2022-08-21T06:49:28.689Z,20.6
2022-08-21T06:51:29.796Z,20.8
2022-08-21T06:53:27.960Z,20.9
2022-08-21T06:57:27.923Z,21.1
2022-08-21T06:59:28.160Z,21.1
2022-08-21T07:03:28.961Z,20.5
2022-08-21T07:05:28.318Z,20.3
2022-08-21T07:07:29.077Z,20.1
2022-08-21T07:09:27.710Z,20.3
2022-08-21T07:11:27.935Z,20.6
2022-08-21T07:13:29.209Z,20.5
2022-08-21T07:15:27.938Z,20.6
2022-08-21T07:17:27.702Z,20.6
2022-08-21T07:21:27.996Z,20.4
2022-08-21T07:23:27.143Z,20.5
2022-08-21T07:25:27.925Z,20.9
2022-08-21T07:27:29.063Z,21
2022-08-21T07:29:26.252Z,21
2022-08-21T07:31:29.106Z,21.1
2022-08-21T07:33:28.524Z,21
2022-08-21T07:35:27.964Z,20.3
2022-08-21T07:37:28.946Z,20.3
2022-08-21T07:39:28.176Z,20.5
2022-08-21T07:41:29.034Z,20.8
2022-08-21T07:43:29.300Z,20.7
2022-08-21T07:45:29.169Z,20.8
2022-08-21T07:47:29.628Z,21
2022-08-21T07:49:29.018Z,21
2022-08-21T07:51:33.038Z,20.9
2022-08-21T07:53:27.583Z,20.7
2022-08-21T07:55:29.345Z,20.7
2022-08-21T07:57:27.906Z,20.8
2022-08-21T07:59:27.157Z,21
2022-08-21T08:01:29.188Z,21.2
2022-08-21T08:03:29.052Z,21.3
2022-08-21T08:05:28.489Z,21.5
2022-08-21T08:07:28.860Z,21.7
2022-08-21T08:09:26.384Z,21.8
2022-08-21T08:11:28.572Z,21.9
2022-08-21T08:13:29.301Z,21.8
2022-08-21T08:15:28.812Z,21.9
2022-08-21T08:17:25.898Z,21.7
2022-08-21T08:19:29.473Z,21.6
2022-08-21T08:21:28.095Z,21.6
2022-08-21T08:23:28.494Z,21.4
2022-08-21T08:25:36.157Z,21.5
2022-08-21T08:27:28.397Z,21.7
2022-08-21T08:29:28.397Z,21.8
2022-08-21T08:31:26.757Z,21.7
2022-08-21T08:33:28.610Z,21.5
2022-08-21T08:35:27.590Z,21.5
2022-08-21T08:37:31.550Z,21.6
2022-08-21T08:39:29.500Z,21.7
2022-08-21T08:41:30.642Z,21.9
2022-08-21T08:43:29.175Z,22.1
2022-08-21T08:45:28.047Z,22.1
2022-08-21T08:47:28.288Z,22
2022-08-21T08:49:29.429Z,22
2022-08-21T08:51:28.549Z,22
2022-08-21T08:53:28.454Z,22
2022-08-21T08:55:29.104Z,22.1
2022-08-21T08:57:28.103Z,22.3
2022-08-21T08:59:28.066Z,22.6
2022-08-21T09:01:29.188Z,22.7
2022-08-21T09:03:28.665Z,22.6
2022-08-21T09:05:28.378Z,22.5
2022-08-21T09:07:29.193Z,22.4
2022-08-21T09:09:28.242Z,22.4
2022-08-21T09:11:28.137Z,22.4
2022-08-21T09:15:27.694Z,22.4
2022-08-21T09:17:28.088Z,22.4
2022-08-21T09:19:28.677Z,22.5
2022-08-21T09:21:28.098Z,22.4
2022-08-21T09:23:28.604Z,22.4
2022-08-21T09:27:27.936Z,22.4
2022-08-21T09:29:27.980Z,22.4
2022-08-21T09:31:29.223Z,22.5
2022-08-21T09:33:27.730Z,22.5
2022-08-21T09:35:28.570Z,22.7
2022-08-21T09:37:27.806Z,22.7
2022-08-21T09:39:28.683Z,22.7
2022-08-21T09:41:28.586Z,22.7
2022-08-21T09:43:29.322Z,22.6
2022-08-21T09:45:28.632Z,22.7
2022-08-21T09:47:28.025Z,22.7
2022-08-21T09:51:30.787Z,22.9
2022-08-21T09:53:29.753Z,23
2022-08-21T09:55:30.043Z,23.1
2022-08-21T09:57:28.109Z,23.1
2022-08-21T09:59:26.412Z,23.2
2022-08-21T10:01:29.234Z,23.2
2022-08-21T10:03:28.083Z,23.2
2022-08-21T10:05:28.633Z,23.1
2022-08-21T10:07:27.955Z,23.2
2022-08-21T10:09:27.727Z,23.3
2022-08-21T10:11:27.965Z,23.2
2022-08-21T10:13:29.571Z,23.4
2022-08-21T10:15:28.602Z,23.4
2022-08-21T10:17:27.669Z,23.2
2022-08-21T10:19:29.298Z,23.2
2022-08-21T10:21:28.599Z,23.3
2022-08-21T10:23:27.974Z,23.3
2022-08-21T10:25:29.183Z,23.4
2022-08-21T10:27:29.346Z,23.3
2022-08-21T10:29:28.200Z,23.3
2022-08-21T10:31:26.828Z,23.4
2022-08-21T10:33:29.338Z,23.5
2022-08-21T10:35:28.622Z,23.5
2022-08-21T10:37:29.601Z,23.5
2022-08-21T10:39:35.323Z,23.5
2022-08-21T10:41:28.111Z,23.6
2022-08-21T10:43:28.914Z,23.5
2022-08-21T10:45:26.457Z,23.6
2022-08-21T10:47:27.221Z,23.6
2022-08-21T10:49:29.227Z,23.6
2022-08-21T10:51:29.512Z,23.7
2022-08-21T10:53:28.237Z,23.7
2022-08-21T10:55:29.325Z,23.7
2022-08-21T10:57:32.232Z,23.6
2022-08-21T10:59:28.691Z,23.6
2022-08-21T11:03:27.752Z,23.7
2022-08-21T11:05:28.419Z,23.8
2022-08-21T11:07:31.197Z,23.8
2022-08-21T11:09:26.832Z,23.5
2022-08-21T11:11:29.446Z,23.4
2022-08-21T11:13:31.096Z,23.4
2022-08-21T11:15:29.451Z,23.5
2022-08-21T11:17:26.396Z,23.4
2022-08-21T11:21:34.722Z,23.6
2022-08-21T11:23:27.714Z,23.6
2022-08-21T11:25:33.329Z,23.7
2022-08-21T11:27:28.226Z,23.8
2022-08-21T11:29:28.548Z,23.9
2022-08-21T11:31:28.553Z,24
2022-08-21T11:33:27.554Z,24
2022-08-21T11:35:27.706Z,23.9
2022-08-21T11:37:31.265Z,23.9
2022-08-21T11:39:29.017Z,24
2022-08-21T11:41:27.763Z,24
2022-08-21T11:43:30.617Z,24
2022-08-21T11:45:28.208Z,24.1
2022-08-21T11:47:28.664Z,24.1
2022-08-21T11:51:29.032Z,24.2
2022-08-21T11:53:29.053Z,24.1
2022-08-21T11:57:28.694Z,23.9
2022-08-21T11:59:27.763Z,23.8
2022-08-21T12:01:29.517Z,23.7
2022-08-21T12:03:28.570Z,23.7
2022-08-21T12:05:28.691Z,23.8
2022-08-21T12:09:29.137Z,23.9
2022-08-21T12:11:30.787Z,23.7
2022-08-21T12:13:36.832Z,23.6
2022-08-21T12:15:27.681Z,23.5
2022-08-21T12:17:28.040Z,23.4
2022-08-21T12:19:29.128Z,23.3
2022-08-21T12:21:27.968Z,23.3
2022-08-21T12:23:27.989Z,23.3
2022-08-21T12:25:29.365Z,23.6
2022-08-21T12:27:28.514Z,23.7
2022-08-21T12:29:28.005Z,23.6
2022-08-21T12:31:29.966Z,23.6
2022-08-21T12:33:28.987Z,23.7
2022-08-21T12:35:28.750Z,23.9
2022-08-21T12:39:28.719Z,23.8
2022-08-21T12:41:27.000Z,23.9
2022-08-21T12:43:29.380Z,24
2022-08-21T12:45:28.181Z,24.1
2022-08-21T12:47:26.428Z,24.3
2022-08-21T12:49:29.272Z,24.3
2022-08-21T12:51:27.386Z,24.4
2022-08-21T12:53:28.228Z,24.2
2022-08-21T12:57:27.302Z,24.3
2022-08-21T12:59:27.983Z,24.4
2022-08-21T13:01:29.690Z,24.4
2022-08-21T13:03:26.372Z,24.5
2022-08-21T13:05:27.970Z,24.4
2022-08-21T13:07:29.680Z,24.4
2022-08-21T13:09:27.983Z,24.4
2022-08-21T13:11:32.509Z,24.3
2022-08-21T13:13:29.151Z,24.4
2022-08-21T13:15:32.022Z,24.5
2022-08-21T13:17:31.426Z,24.4
2022-08-21T13:19:29.353Z,24.5
2022-08-21T13:21:27.125Z,24.5
2022-08-21T13:23:27.989Z,24.5
2022-08-21T13:25:29.275Z,24.6
2022-08-21T13:27:27.707Z,24.6
2022-08-21T13:29:26.931Z,24.6
2022-08-21T13:33:34.883Z,24.7
2022-08-21T13:35:29.616Z,24.6
2022-08-21T13:37:30.894Z,24.7
2022-08-21T13:39:27.939Z,24.6
2022-08-21T13:41:28.260Z,24.7
2022-08-21T13:43:29.250Z,24.7
2022-08-21T13:45:27.789Z,24.7
2022-08-21T13:47:28.000Z,24.7
2022-08-21T13:49:29.499Z,24.7
2022-08-21T13:51:27.361Z,24.7
2022-08-21T13:53:27.857Z,24.7
2022-08-21T13:55:29.128Z,24.7
2022-08-21T13:57:27.758Z,24.7
2022-08-21T14:03:28.637Z,24.8
2022-08-21T14:07:29.211Z,24.8
2022-08-21T14:11:28.547Z,24.9
2022-08-21T14:15:28.244Z,24.8
2022-08-21T14:17:29.189Z,24.7
2022-08-21T14:19:29.322Z,24.7
2022-08-21T14:21:28.521Z,24.7
2022-08-21T14:23:28.784Z,24.8
2022-08-21T14:25:27.950Z,24.8
2022-08-21T14:27:28.280Z,24.8
2022-08-21T14:29:28.150Z,24.8
2022-08-21T14:33:27.781Z,24.9
2022-08-21T14:35:28.202Z,24.9
2022-08-21T14:37:29.458Z,24.9
2022-08-21T14:39:28.461Z,24.8
2022-08-21T14:41:28.231Z,24.8
2022-08-21T14:43:30.875Z,24.8
2022-08-21T14:45:28.017Z,24.8
2022-08-21T14:47:30.899Z,24.8
2022-08-21T14:49:29.579Z,24.8
2022-08-21T14:51:27.828Z,24.8
2022-08-21T14:53:28.016Z,24.8
2022-08-21T14:57:29.066Z,24.7
2022-08-21T14:59:28.751Z,24.7
2022-08-21T15:03:28.218Z,24.6
2022-08-21T15:05:31.690Z,24.6
2022-08-21T15:07:29.448Z,24.6
2022-08-21T15:09:28.693Z,24.6
2022-08-21T15:11:41.618Z,24.6
2022-08-21T15:13:29.353Z,24.6
2022-08-21T15:15:28.440Z,24.6
2022-08-21T15:17:28.009Z,24.5
2022-08-21T15:21:26.637Z,24.6
2022-08-21T15:23:27.887Z,24.6
2022-08-21T15:25:29.461Z,24.6
2022-08-21T15:27:32.933Z,24.6
2022-08-21T15:29:33.366Z,24.6
2022-08-21T15:31:29.585Z,24.6
2022-08-21T15:33:28.723Z,24.6
2022-08-21T15:35:27.090Z,24.6
2022-08-21T15:37:31.859Z,24.6
2022-08-21T15:39:30.255Z,24.6
2022-08-21T15:41:28.406Z,24.5
2022-08-21T15:45:28.616Z,24.5
2022-08-21T15:47:37.472Z,24.5
2022-08-21T15:49:29.114Z,24.5
2022-08-21T15:51:27.883Z,24.5
2022-08-21T15:53:28.735Z,24.5
2022-08-21T15:55:29.165Z,24.5
2022-08-21T15:57:31.131Z,24.5
2022-08-21T15:59:28.695Z,24.5
2022-08-21T16:01:29.391Z,24.4
2022-08-21T16:03:27.991Z,24.4
2022-08-21T16:05:26.994Z,24.4
2022-08-21T16:07:29.759Z,24.4
2022-08-21T16:09:28.084Z,24.4
2022-08-21T16:11:28.654Z,24.3
2022-08-21T16:13:29.302Z,24.3
2022-08-21T16:15:28.381Z,24.3
2022-08-21T16:17:28.429Z,24.3
2022-08-21T16:19:29.720Z,24.4
2022-08-21T16:21:27.339Z,24.4
2022-08-21T16:23:39.382Z,24.4
2022-08-21T16:25:29.341Z,24.4
2022-08-21T16:27:28.628Z,24.3
2022-08-21T16:29:28.035Z,24.3
2022-08-21T16:31:29.117Z,24.3
2022-08-21T16:33:28.417Z,24.3
2022-08-21T16:35:28.532Z,24.3
2022-08-21T16:37:29.205Z,24.3
2022-08-21T16:39:26.510Z,24.3
2022-08-21T16:41:28.677Z,24.2
2022-08-21T16:43:29.468Z,24.2
2022-08-21T16:45:31.168Z,24.2
2022-08-21T16:47:29.523Z,24.2
2022-08-21T16:51:28.760Z,24.2
2022-08-21T16:53:31.880Z,24.2
2022-08-21T16:55:31.587Z,24.2
2022-08-21T16:57:28.797Z,24.2
2022-08-21T16:59:28.844Z,24.2
2022-08-21T17:01:29.451Z,24.1
2022-08-21T17:03:28.783Z,24.2
2022-08-21T17:05:28.025Z,24.1
2022-08-21T17:07:28.449Z,24.1
2022-08-21T17:09:27.998Z,24.1
2022-08-21T17:11:32.520Z,24.1
2022-08-21T17:13:29.482Z,24.1
2022-08-21T17:15:28.306Z,24.1
2022-08-21T17:17:26.501Z,24
2022-08-21T17:21:29.198Z,24
2022-08-21T17:23:28.799Z,24
2022-08-21T17:27:28.890Z,24
2022-08-21T17:32:03.107Z,23.9
2022-08-21T17:35:31.532Z,23.8
2022-08-21T17:39:10.612Z,23.6
2022-08-21T17:41:11.053Z,23.5
2022-08-21T17:45:11.009Z,23.3
2022-08-21T17:47:09.593Z,23.2
2022-08-21T17:51:11.881Z,23
2022-08-21T17:55:13.096Z,22.7
2022-08-21T17:57:11.318Z,22.6
2022-08-21T17:59:07.652Z,22.4
2022-08-21T18:01:13.156Z,22.3
2022-08-21T18:03:09.378Z,22.1
2022-08-21T18:05:12.154Z,22
2022-08-21T18:09:10.960Z,21.7
2022-08-21T18:11:11.628Z,21.8
2022-08-21T18:15:11.042Z,21.6
2022-08-21T18:17:07.337Z,21.5
2022-08-21T18:21:11.778Z,21
2022-08-21T18:23:11.632Z,21.1
2022-08-21T18:25:13.300Z,21.1
2022-08-21T18:27:09.722Z,21
2022-08-21T18:29:09.086Z,20.9
2022-08-21T18:31:13.225Z,20.9
2022-08-21T18:33:05.932Z,20.8
2022-08-21T18:35:11.269Z,20.7
2022-08-21T18:39:34.757Z,20.7
2022-08-21T18:41:07.358Z,20.6
2022-08-21T18:43:15.456Z,20.5
2022-08-21T18:45:07.411Z,20.4
2022-08-21T18:47:09.144Z,20.4
2022-08-21T18:49:13.476Z,20.4
2022-08-21T18:51:09.115Z,20.3
2022-08-21T18:53:07.427Z,20.3
2022-08-21T18:57:10.698Z,20
2022-08-21T18:59:16.046Z,20.1
2022-08-21T19:01:12.821Z,20.2
2022-08-21T19:03:09.367Z,20.1
2022-08-21T19:05:12.605Z,20.2
2022-08-21T19:09:08.342Z,20
2022-08-21T19:11:12.290Z,20.1
2022-08-21T19:15:11.372Z,20
2022-08-21T19:17:09.775Z,19.9
2022-08-21T19:19:13.215Z,19.7
2022-08-21T19:21:12.674Z,19.5
2022-08-21T19:23:07.607Z,19.5
2022-08-21T19:27:09.693Z,19.5
2022-08-21T19:29:11.488Z,19.5
2022-08-21T19:33:09.283Z,19.2
2022-08-21T19:35:10.241Z,19.1
2022-08-21T19:37:12.761Z,19
2022-08-21T19:39:09.415Z,19
2022-08-21T19:41:05.906Z,19
2022-08-21T19:45:07.004Z,18.9
2022-08-21T19:47:06.940Z,18.8
2022-08-21T19:49:12.968Z,18.8
2022-08-21T19:51:11.006Z,18.9
2022-08-21T19:53:12.066Z,18.8
2022-08-21T19:55:13.135Z,18.8
2022-08-21T19:57:10.181Z,18.8
2022-08-21T19:59:09.776Z,18.9
2022-08-21T20:03:09.914Z,18.6
2022-08-21T20:05:08.422Z,18.7
2022-08-21T20:07:13.187Z,18.9
2022-08-21T20:09:10.520Z,18.7
2022-08-21T20:11:07.707Z,18.6
2022-08-21T20:13:13.148Z,18.6
2022-08-21T20:15:10.469Z,18.6
2022-08-21T20:17:07.652Z,18.6
2022-08-21T20:19:13.014Z,18.6
2022-08-21T20:21:07.718Z,18.5
2022-08-21T20:23:12.474Z,18.4
2022-08-21T20:27:11.827Z,18.3
2022-08-21T20:29:12.349Z,18.4
2022-08-21T20:31:14.550Z,18.4
2022-08-21T20:33:09.484Z,18.3
2022-08-21T20:35:12.474Z,18.4
2022-08-21T20:39:11.290Z,18.6
2022-08-21T20:41:18.068Z,18.6
2022-08-21T20:43:13.308Z,18.7
2022-08-21T20:45:08.180Z,18.6
2022-08-21T20:47:08.548Z,18.6
2022-08-21T20:49:13.087Z,18.6
2022-08-21T20:51:08.136Z,18.6
2022-08-21T20:53:07.269Z,18.7
2022-08-21T20:55:13.302Z,18.6
2022-08-21T20:57:13.764Z,18.4
2022-08-21T20:59:11.935Z,18.1
2022-08-21T21:03:09.685Z,18.1
2022-08-21T21:05:12.377Z,18
2022-08-21T21:09:09.654Z,17.7
2022-08-21T21:11:12.145Z,17.7
2022-08-21T21:13:13.090Z,17.8
2022-08-21T21:15:09.759Z,17.9
2022-08-21T21:17:12.256Z,17.9
2022-08-21T21:19:12.908Z,17.9
2022-08-21T21:21:11.376Z,18
2022-08-21T21:23:09.154Z,18.1
2022-08-21T21:27:11.906Z,18
2022-08-21T21:29:10.874Z,18.1
2022-08-21T21:33:08.677Z,18.1
2022-08-21T21:35:07.053Z,17.9
2022-08-21T21:37:13.503Z,18.2
2022-08-21T21:39:09.661Z,18.1
2022-08-21T21:41:07.359Z,18.2
2022-08-21T21:45:08.498Z,17.9
2022-08-21T21:47:08.392Z,17.9
2022-08-21T21:49:12.237Z,18
2022-08-21T21:51:12.139Z,17.7
2022-08-21T21:53:12.448Z,17.6
2022-08-21T21:57:12.759Z,17.8
2022-08-21T21:59:11.170Z,17.5
2022-08-21T22:01:13.216Z,17.5
2022-08-21T22:05:11.539Z,17.1
2022-08-21T22:07:13.450Z,17.2
2022-08-21T22:09:09.279Z,17.1
2022-08-21T22:11:24.557Z,17.1
2022-08-21T22:17:09.780Z,17.4
2022-08-21T22:19:13.839Z,17.1
2022-08-21T22:21:12.048Z,17
2022-08-21T22:23:10.289Z,16.9
2022-08-21T22:25:13.255Z,16.8
2022-08-21T22:27:09.252Z,16.9
2022-08-21T22:29:11.213Z,16.8
2022-08-21T22:31:13.077Z,16.7
2022-08-21T22:33:10.791Z,16.6
2022-08-21T22:35:11.976Z,16.6
2022-08-21T22:37:12.995Z,16.6
2022-08-21T22:39:12.028Z,16.5
2022-08-21T22:41:10.587Z,16.3
2022-08-21T22:45:09.489Z,16.4
2022-08-21T22:47:09.733Z,16.3
2022-08-21T22:49:12.479Z,16.2
2022-08-21T22:51:08.160Z,16.2
2022-08-21T22:53:11.530Z,16.2
2022-08-21T22:55:13.309Z,16.1
2022-08-21T22:57:07.372Z,16.2
2022-08-21T22:59:07.399Z,16.3
2022-08-21T23:01:13.092Z,16.3
2022-08-21T23:03:11.167Z,16.2
2022-08-21T23:05:09.688Z,16.1
2022-08-21T23:07:12.890Z,15.9
2022-08-21T23:09:07.445Z,16.2
2022-08-21T23:11:11.910Z,16.1
2022-08-21T23:15:09.127Z,15.9
2022-08-21T23:17:12.474Z,16
2022-08-21T23:21:10.246Z,15.9
2022-08-21T23:23:09.152Z,15.9
2022-08-21T23:27:11.968Z,16
2022-08-21T23:29:08.426Z,16.2
2022-08-21T23:31:13.540Z,16.1
2022-08-21T23:33:07.405Z,16
2022-08-21T23:35:12.034Z,16
2022-08-21T23:37:13.225Z,15.9
2022-08-21T23:39:12.509Z,15.9
2022-08-21T23:41:11.035Z,15.9
2022-08-21T23:43:12.470Z,15.9
2022-08-21T23:45:13.575Z,15.9
2022-08-21T23:47:10.822Z,16
2022-08-21T23:51:08.848Z,16.1
2022-08-21T23:53:09.013Z,16.3
2022-08-21T23:57:10.550Z,16.3
2022-08-21T23:59:11.541Z,16.1
